sensor_id;sensor_type;location;lat;lon;timestamp;P1;durP1;ratioP1;P2;durP2;ratioP2
22248;SDS011;67538;52.180;5.646;2023-02-19T00:01:41;48.03;;;17.63;;
22248;SDS011;67538;52.180;5.646;2023-02-19T00:04:10;52.05;;;17.42;;
22248;SDS011;67538;52.180;5.646;2023-02-19T00:06:41;46.92;;;16.88;;
22248;SDS011;67538;52.180;5.646;2023-02-19T00:09:09;48.50;;;16.30;;
22248;SDS011;67538;52.180;5.646;2023-02-19T00:11:37;42.65;;;15.40;;
22248;SDS011;67538;52.180;5.646;2023-02-19T00:14:05;42.55;;;14.88;;
22248;SDS011;67538;52.180;5.646;2023-02-19T00:16:33;41.33;;;15.27;;
22248;SDS011;67538;52.180;5.646;2023-02-19T00:19:03;40.72;;;14.57;;
22248;SDS011;67538;52.180;5.646;2023-02-19T00:21:31;39.08;;;14.20;;
22248;SDS011;67538;52.180;5.646;2023-02-19T00:24:00;38.58;;;13.27;;
22248;SDS011;67538;52.180;5.646;2023-02-19T00:26:30;38.08;;;14.20;;
22248;SDS011;67538;52.180;5.646;2023-02-19T00:28:57;35.65;;;13.88;;
22248;SDS011;67538;52.180;5.646;2023-02-19T00:31:26;35.20;;;12.70;;
22248;SDS011;67538;52.180;5.646;2023-02-19T00:33:55;31.70;;;12.95;;
22248;SDS011;67538;52.180;5.646;2023-02-19T00:36:23;32.08;;;12.23;;
22248;SDS011;67538;52.180;5.646;2023-02-19T00:38:52;38.60;;;12.77;;
22248;SDS011;67538;52.180;5.646;2023-02-19T00:41:21;32.83;;;11.75;;
22248;SDS011;67538;52.180;5.646;2023-02-19T00:43:49;31.40;;;11.98;;
22248;SDS011;67538;52.180;5.646;2023-02-19T00:46:18;34.03;;;12.00;;
22248;SDS011;67538;52.180;5.646;2023-02-19T00:48:46;31.23;;;11.30;;
22248;SDS011;67538;52.180;5.646;2023-02-19T00:51:14;30.17;;;11.50;;
22248;SDS011;67538;52.180;5.646;2023-02-19T00:53:41;30.20;;;11.27;;
22248;SDS011;67538;52.180;5.646;2023-02-19T00:56:08;32.33;;;11.43;;
22248;SDS011;67538;52.180;5.646;2023-02-19T00:58:37;28.73;;;11.45;;
22248;SDS011;67538;52.180;5.646;2023-02-19T01:01:05;30.55;;;11.52;;
22248;SDS011;67538;52.180;5.646;2023-02-19T01:03:32;33.43;;;12.77;;
22248;SDS011;67538;52.180;5.646;2023-02-19T01:06:00;33.40;;;12.05;;
22248;SDS011;67538;52.180;5.646;2023-02-19T01:08:27;29.60;;;12.48;;
22248;SDS011;67538;52.180;5.646;2023-02-19T01:10:56;31.67;;;12.13;;
22248;SDS011;67538;52.180;5.646;2023-02-19T01:13:23;32.65;;;13.40;;
22248;SDS011;67538;52.180;5.646;2023-02-19T01:15:52;32.60;;;12.33;;
22248;SDS011;67538;52.180;5.646;2023-02-19T01:18:19;31.95;;;12.75;;
22248;SDS011;67538;52.180;5.646;2023-02-19T01:20:46;32.22;;;13.10;;
22248;SDS011;67538;52.180;5.646;2023-02-19T01:23:13;31.40;;;12.77;;
22248;SDS011;67538;52.180;5.646;2023-02-19T01:25:40;36.30;;;13.27;;
22248;SDS011;67538;52.180;5.646;2023-02-19T01:28:07;36.47;;;13.20;;
22248;SDS011;67538;52.180;5.646;2023-02-19T01:30:36;34.80;;;13.20;;
22248;SDS011;67538;52.180;5.646;2023-02-19T01:33:05;35.95;;;13.20;;
22248;SDS011;67538;52.180;5.646;2023-02-19T01:35:33;30.58;;;12.65;;
22248;SDS011;67538;52.180;5.646;2023-02-19T01:38:04;35.15;;;13.38;;
22248;SDS011;67538;52.180;5.646;2023-02-19T01:40:32;36.67;;;13.37;;
22248;SDS011;67538;52.180;5.646;2023-02-19T01:42:59;32.83;;;12.52;;
22248;SDS011;67538;52.180;5.646;2023-02-19T01:45:28;36.00;;;13.77;;
22248;SDS011;67538;52.180;5.646;2023-02-19T01:48:05;31.05;;;12.88;;
22248;SDS011;67538;52.180;5.646;2023-02-19T01:50:36;36.92;;;13.32;;
22248;SDS011;67538;52.180;5.646;2023-02-19T01:53:07;31.63;;;13.68;;
22248;SDS011;67538;52.180;5.646;2023-02-19T01:55:39;31.45;;;13.02;;
22248;SDS011;67538;52.180;5.646;2023-02-19T01:58:07;33.25;;;14.07;;
22248;SDS011;67538;52.180;5.646;2023-02-19T02:00:35;34.92;;;13.80;;
22248;SDS011;67538;52.180;5.646;2023-02-19T02:03:02;35.60;;;13.93;;
22248;SDS011;67538;52.180;5.646;2023-02-19T02:05:35;32.72;;;14.07;;
22248;SDS011;67538;52.180;5.646;2023-02-19T02:08:07;36.40;;;13.90;;
22248;SDS011;67538;52.180;5.646;2023-02-19T02:10:52;33.33;;;13.75;;
22248;SDS011;67538;52.180;5.646;2023-02-19T02:13:21;35.00;;;13.85;;
22248;SDS011;67538;52.180;5.646;2023-02-19T02:15:50;34.97;;;14.27;;
22248;SDS011;67538;52.180;5.646;2023-02-19T02:18:33;35.65;;;14.02;;
22248;SDS011;67538;52.180;5.646;2023-02-19T02:21:23;35.83;;;13.93;;
22248;SDS011;67538;52.180;5.646;2023-02-19T02:24:30;32.78;;;13.48;;
22248;SDS011;67538;52.180;5.646;2023-02-19T02:27:26;33.13;;;13.73;;
22248;SDS011;67538;52.180;5.646;2023-02-19T02:30:10;28.63;;;13.57;;
22248;SDS011;67538;52.180;5.646;2023-02-19T02:33:00;33.15;;;13.50;;
22248;SDS011;67538;52.180;5.646;2023-02-19T02:35:38;31.52;;;13.65;;
22248;SDS011;67538;52.180;5.646;2023-02-19T02:38:09;32.45;;;13.65;;
22248;SDS011;67538;52.180;5.646;2023-02-19T02:40:39;34.90;;;14.05;;
22248;SDS011;67538;52.180;5.646;2023-02-19T02:43:09;32.53;;;14.10;;
22248;SDS011;67538;52.180;5.646;2023-02-19T02:45:38;31.60;;;14.40;;
22248;SDS011;67538;52.180;5.646;2023-02-19T02:48:08;28.67;;;13.88;;
22248;SDS011;67538;52.180;5.646;2023-02-19T02:50:41;30.20;;;13.15;;
22248;SDS011;67538;52.180;5.646;2023-02-19T02:53:12;28.50;;;13.38;;
22248;SDS011;67538;52.180;5.646;2023-02-19T02:56:05;26.67;;;12.98;;
22248;SDS011;67538;52.180;5.646;2023-02-19T02:58:35;30.58;;;12.80;;
22248;SDS011;67538;52.180;5.646;2023-02-19T03:01:05;31.27;;;13.03;;
22248;SDS011;67538;52.180;5.646;2023-02-19T03:03:53;27.55;;;12.85;;
22248;SDS011;67538;52.180;5.646;2023-02-19T03:06:23;24.50;;;12.63;;
22248;SDS011;67538;52.180;5.646;2023-02-19T03:08:52;30.70;;;12.70;;
22248;SDS011;67538;52.180;5.646;2023-02-19T03:11:24;27.80;;;12.00;;
22248;SDS011;67538;52.180;5.646;2023-02-19T03:14:10;24.00;;;11.52;;
22248;SDS011;67538;52.180;5.646;2023-02-19T03:16:59;27.42;;;12.07;;
22248;SDS011;67538;52.180;5.646;2023-02-19T03:20:02;24.98;;;11.50;;
22248;SDS011;67538;52.180;5.646;2023-02-19T03:22:35;23.80;;;10.98;;
22248;SDS011;67538;52.180;5.646;2023-02-19T03:25:04;25.10;;;10.23;;
22248;SDS011;67538;52.180;5.646;2023-02-19T03:27:52;26.02;;;9.77;;
22248;SDS011;67538;52.180;5.646;2023-02-19T03:30:22;25.88;;;9.57;;
22248;SDS011;67538;52.180;5.646;2023-02-19T03:32:56;24.92;;;9.30;;
22248;SDS011;67538;52.180;5.646;2023-02-19T03:35:26;22.07;;;9.00;;
22248;SDS011;67538;52.180;5.646;2023-02-19T03:37:57;22.42;;;8.70;;
22248;SDS011;67538;52.180;5.646;2023-02-19T03:40:29;19.35;;;8.57;;
22248;SDS011;67538;52.180;5.646;2023-02-19T03:43:00;23.95;;;8.57;;
22248;SDS011;67538;52.180;5.646;2023-02-19T03:45:37;26.47;;;8.90;;
22248;SDS011;67538;52.180;5.646;2023-02-19T03:48:17;21.73;;;8.13;;
22248;SDS011;67538;52.180;5.646;2023-02-19T03:50:51;19.48;;;8.10;;
22248;SDS011;67538;52.180;5.646;2023-02-19T03:53:36;26.23;;;8.73;;
22248;SDS011;67538;52.180;5.646;2023-02-19T03:56:13;21.25;;;8.25;;
22248;SDS011;67538;52.180;5.646;2023-02-19T03:58:47;22.65;;;8.50;;
22248;SDS011;67538;52.180;5.646;2023-02-19T04:01:19;23.17;;;8.32;;
22248;SDS011;67538;52.180;5.646;2023-02-19T04:03:54;21.05;;;8.30;;
22248;SDS011;67538;52.180;5.646;2023-02-19T04:06:25;24.42;;;8.52;;
22248;SDS011;67538;52.180;5.646;2023-02-19T04:08:55;21.17;;;8.80;;
22248;SDS011;67538;52.180;5.646;2023-02-19T04:11:24;22.42;;;8.90;;
22248;SDS011;67538;52.180;5.646;2023-02-19T04:13:54;22.13;;;8.80;;
22248;SDS011;67538;52.180;5.646;2023-02-19T04:16:26;19.05;;;8.50;;
22248;SDS011;67538;52.180;5.646;2023-02-19T04:18:57;21.73;;;9.27;;
22248;SDS011;67538;52.180;5.646;2023-02-19T04:21:27;17.98;;;8.85;;
22248;SDS011;67538;52.180;5.646;2023-02-19T04:23:57;17.65;;;9.18;;
22248;SDS011;67538;52.180;5.646;2023-02-19T04:26:28;21.58;;;9.77;;
22248;SDS011;67538;52.180;5.646;2023-02-19T04:28:57;21.85;;;10.00;;
22248;SDS011;67538;52.180;5.646;2023-02-19T04:31:24;21.55;;;9.93;;
22248;SDS011;67538;52.180;5.646;2023-02-19T04:33:55;20.70;;;9.60;;
22248;SDS011;67538;52.180;5.646;2023-02-19T04:36:23;18.60;;;9.85;;
22248;SDS011;67538;52.180;5.646;2023-02-19T04:38:50;21.08;;;10.70;;
22248;SDS011;67538;52.180;5.646;2023-02-19T04:41:17;21.17;;;9.93;;
22248;SDS011;67538;52.180;5.646;2023-02-19T04:43:44;23.00;;;11.10;;
22248;SDS011;67538;52.180;5.646;2023-02-19T04:46:11;26.02;;;11.40;;
22248;SDS011;67538;52.180;5.646;2023-02-19T04:48:38;24.43;;;11.80;;
22248;SDS011;67538;52.180;5.646;2023-02-19T04:51:08;23.30;;;11.50;;
22248;SDS011;67538;52.180;5.646;2023-02-19T04:53:36;21.67;;;10.85;;
22248;SDS011;67538;52.180;5.646;2023-02-19T04:56:04;22.40;;;11.53;;
22248;SDS011;67538;52.180;5.646;2023-02-19T04:58:32;25.77;;;12.02;;
22248;SDS011;67538;52.180;5.646;2023-02-19T05:00:59;22.08;;;11.70;;
22248;SDS011;67538;52.180;5.646;2023-02-19T05:03:26;24.05;;;12.40;;
22248;SDS011;67538;52.180;5.646;2023-02-19T05:05:53;28.48;;;12.52;;
22248;SDS011;67538;52.180;5.646;2023-02-19T05:08:22;24.40;;;12.95;;
22248;SDS011;67538;52.180;5.646;2023-02-19T05:10:49;24.98;;;13.20;;
22248;SDS011;67538;52.180;5.646;2023-02-19T05:13:16;22.80;;;12.70;;
22248;SDS011;67538;52.180;5.646;2023-02-19T05:15:52;26.27;;;12.82;;
22248;SDS011;67538;52.180;5.646;2023-02-19T05:18:20;27.10;;;12.23;;
22248;SDS011;67538;52.180;5.646;2023-02-19T05:20:48;24.00;;;12.13;;
22248;SDS011;67538;52.180;5.646;2023-02-19T05:23:15;21.15;;;11.88;;
22248;SDS011;67538;52.180;5.646;2023-02-19T05:25:44;22.75;;;12.15;;
22248;SDS011;67538;52.180;5.646;2023-02-19T05:28:11;21.63;;;11.18;;
22248;SDS011;67538;52.180;5.646;2023-02-19T05:30:45;18.50;;;10.80;;
22248;SDS011;67538;52.180;5.646;2023-02-19T05:33:14;20.95;;;11.27;;
22248;SDS011;67538;52.180;5.646;2023-02-19T05:35:42;18.17;;;10.50;;
22248;SDS011;67538;52.180;5.646;2023-02-19T05:38:10;18.67;;;10.35;;
22248;SDS011;67538;52.180;5.646;2023-02-19T05:40:38;18.33;;;10.40;;
22248;SDS011;67538;52.180;5.646;2023-02-19T05:43:07;19.50;;;9.85;;
22248;SDS011;67538;52.180;5.646;2023-02-19T05:45:34;17.90;;;11.18;;
22248;SDS011;67538;52.180;5.646;2023-02-19T05:48:02;19.33;;;12.35;;
22248;SDS011;67538;52.180;5.646;2023-02-19T05:50:30;24.65;;;13.60;;
22248;SDS011;67538;52.180;5.646;2023-02-19T05:52:58;23.65;;;14.05;;
22248;SDS011;67538;52.180;5.646;2023-02-19T05:55:26;19.48;;;13.13;;
22248;SDS011;67538;52.180;5.646;2023-02-19T05:57:53;21.30;;;12.40;;
22248;SDS011;67538;52.180;5.646;2023-02-19T06:00:22;21.48;;;12.13;;
22248;SDS011;67538;52.180;5.646;2023-02-19T06:02:51;20.67;;;11.40;;
22248;SDS011;67538;52.180;5.646;2023-02-19T06:05:18;19.77;;;11.30;;
22248;SDS011;67538;52.180;5.646;2023-02-19T06:07:46;17.33;;;10.20;;
22248;SDS011;67538;52.180;5.646;2023-02-19T06:10:14;18.10;;;9.90;;
22248;SDS011;67538;52.180;5.646;2023-02-19T06:12:41;16.95;;;9.57;;
22248;SDS011;67538;52.180;5.646;2023-02-19T06:15:08;16.65;;;10.68;;
22248;SDS011;67538;52.180;5.646;2023-02-19T06:17:37;18.55;;;11.77;;
22248;SDS011;67538;52.180;5.646;2023-02-19T06:20:04;17.63;;;11.65;;
22248;SDS011;67538;52.180;5.646;2023-02-19T06:22:32;18.95;;;12.48;;
22248;SDS011;67538;52.180;5.646;2023-02-19T06:24:59;19.30;;;13.25;;
22248;SDS011;67538;52.180;5.646;2023-02-19T06:27:26;22.75;;;14.40;;
22248;SDS011;67538;52.180;5.646;2023-02-19T06:29:53;22.23;;;14.90;;
22248;SDS011;67538;52.180;5.646;2023-02-19T06:32:20;21.88;;;15.07;;
22248;SDS011;67538;52.180;5.646;2023-02-19T06:34:48;23.58;;;16.38;;
22248;SDS011;67538;52.180;5.646;2023-02-19T06:37:15;24.52;;;16.30;;
22248;SDS011;67538;52.180;5.646;2023-02-19T06:39:42;25.15;;;16.23;;
22248;SDS011;67538;52.180;5.646;2023-02-19T06:42:10;27.17;;;15.23;;
22248;SDS011;67538;52.180;5.646;2023-02-19T06:44:37;24.70;;;15.63;;
22248;SDS011;67538;52.180;5.646;2023-02-19T06:47:04;26.40;;;15.57;;
22248;SDS011;67538;52.180;5.646;2023-02-19T06:49:31;27.70;;;16.20;;
22248;SDS011;67538;52.180;5.646;2023-02-19T06:51:59;27.92;;;16.17;;
22248;SDS011;67538;52.180;5.646;2023-02-19T06:54:27;28.27;;;15.70;;
22248;SDS011;67538;52.180;5.646;2023-02-19T06:56:55;30.73;;;15.07;;
22248;SDS011;67538;52.180;5.646;2023-02-19T06:59:23;26.63;;;15.55;;
22248;SDS011;67538;52.180;5.646;2023-02-19T07:01:50;30.02;;;14.70;;
22248;SDS011;67538;52.180;5.646;2023-02-19T07:04:18;31.02;;;14.57;;
22248;SDS011;67538;52.180;5.646;2023-02-19T07:06:45;29.42;;;14.50;;
22248;SDS011;67538;52.180;5.646;2023-02-19T07:09:13;29.70;;;14.32;;
22248;SDS011;67538;52.180;5.646;2023-02-19T07:11:40;28.13;;;13.20;;
22248;SDS011;67538;52.180;5.646;2023-02-19T07:14:09;28.30;;;12.70;;
22248;SDS011;67538;52.180;5.646;2023-02-19T07:16:40;33.85;;;12.38;;
22248;SDS011;67538;52.180;5.646;2023-02-19T07:19:08;30.40;;;11.73;;
22248;SDS011;67538;52.180;5.646;2023-02-19T07:21:36;25.70;;;10.27;;
22248;SDS011;67538;52.180;5.646;2023-02-19T07:24:03;27.27;;;10.27;;
22248;SDS011;67538;52.180;5.646;2023-02-19T07:26:34;29.13;;;10.30;;
22248;SDS011;67538;52.180;5.646;2023-02-19T07:29:01;25.77;;;10.10;;
22248;SDS011;67538;52.180;5.646;2023-02-19T07:31:28;27.13;;;9.90;;
22248;SDS011;67538;52.180;5.646;2023-02-19T07:33:55;24.83;;;10.25;;
22248;SDS011;67538;52.180;5.646;2023-02-19T07:36:22;25.33;;;9.48;;
22248;SDS011;67538;52.180;5.646;2023-02-19T07:38:53;27.88;;;10.50;;
22248;SDS011;67538;52.180;5.646;2023-02-19T07:41:20;29.63;;;10.15;;
22248;SDS011;67538;52.180;5.646;2023-02-19T07:43:50;29.43;;;9.50;;
22248;SDS011;67538;52.180;5.646;2023-02-19T07:46:18;21.10;;;9.05;;
22248;SDS011;67538;52.180;5.646;2023-02-19T07:48:45;28.20;;;9.30;;
22248;SDS011;67538;52.180;5.646;2023-02-19T07:51:14;24.70;;;9.18;;
22248;SDS011;67538;52.180;5.646;2023-02-19T07:53:46;26.58;;;10.15;;
22248;SDS011;67538;52.180;5.646;2023-02-19T07:56:15;27.33;;;9.70;;
22248;SDS011;67538;52.180;5.646;2023-02-19T07:58:42;28.20;;;10.23;;
22248;SDS011;67538;52.180;5.646;2023-02-19T08:01:13;23.85;;;10.20;;
22248;SDS011;67538;52.180;5.646;2023-02-19T08:03:41;28.07;;;10.43;;
22248;SDS011;67538;52.180;5.646;2023-02-19T08:06:09;29.17;;;10.68;;
22248;SDS011;67538;52.180;5.646;2023-02-19T08:08:36;30.88;;;11.20;;
22248;SDS011;67538;52.180;5.646;2023-02-19T08:11:04;34.08;;;12.40;;
22248;SDS011;67538;52.180;5.646;2023-02-19T08:13:49;32.38;;;12.32;;
22248;SDS011;67538;52.180;5.646;2023-02-19T08:16:19;25.90;;;11.45;;
22248;SDS011;67538;52.180;5.646;2023-02-19T08:18:47;24.25;;;9.93;;
22248;SDS011;67538;52.180;5.646;2023-02-19T08:21:14;24.88;;;10.40;;
22248;SDS011;67538;52.180;5.646;2023-02-19T08:23:43;14.30;;;8.23;;
22248;SDS011;67538;52.180;5.646;2023-02-19T08:26:11;18.45;;;8.90;;
22248;SDS011;67538;52.180;5.646;2023-02-19T08:28:39;18.40;;;8.20;;
22248;SDS011;67538;52.180;5.646;2023-02-19T08:31:06;21.77;;;8.88;;
22248;SDS011;67538;52.180;5.646;2023-02-19T08:33:36;19.87;;;9.10;;
22248;SDS011;67538;52.180;5.646;2023-02-19T08:36:04;20.52;;;9.30;;
22248;SDS011;67538;52.180;5.646;2023-02-19T08:38:34;21.63;;;9.77;;
22248;SDS011;67538;52.180;5.646;2023-02-19T08:41:04;23.88;;;9.85;;
22248;SDS011;67538;52.180;5.646;2023-02-19T08:43:32;20.58;;;9.73;;
22248;SDS011;67538;52.180;5.646;2023-02-19T08:46:00;23.02;;;10.05;;
22248;SDS011;67538;52.180;5.646;2023-02-19T08:48:27;22.42;;;9.57;;
22248;SDS011;67538;52.180;5.646;2023-02-19T08:50:58;24.50;;;9.50;;
22248;SDS011;67538;52.180;5.646;2023-02-19T08:53:28;24.13;;;9.70;;
22248;SDS011;67538;52.180;5.646;2023-02-19T08:55:57;23.05;;;9.90;;
22248;SDS011;67538;52.180;5.646;2023-02-19T08:58:24;25.17;;;10.68;;
22248;SDS011;67538;52.180;5.646;2023-02-19T09:00:51;25.08;;;11.48;;
22248;SDS011;67538;52.180;5.646;2023-02-19T09:03:18;33.60;;;11.02;;
22248;SDS011;67538;52.180;5.646;2023-02-19T09:05:45;26.42;;;10.45;;
22248;SDS011;67538;52.180;5.646;2023-02-19T09:08:14;27.38;;;10.40;;
22248;SDS011;67538;52.180;5.646;2023-02-19T09:10:41;24.80;;;9.32;;
22248;SDS011;67538;52.180;5.646;2023-02-19T09:13:08;22.02;;;9.98;;
22248;SDS011;67538;52.180;5.646;2023-02-19T09:15:36;24.88;;;10.15;;
22248;SDS011;67538;52.180;5.646;2023-02-19T09:18:03;21.67;;;9.07;;
22248;SDS011;67538;52.180;5.646;2023-02-19T09:20:30;27.98;;;10.32;;
22248;SDS011;67538;52.180;5.646;2023-02-19T09:22:57;28.52;;;10.07;;
22248;SDS011;67538;52.180;5.646;2023-02-19T09:25:26;31.65;;;10.63;;
22248;SDS011;67538;52.180;5.646;2023-02-19T09:27:53;23.70;;;10.15;;
22248;SDS011;67538;52.180;5.646;2023-02-19T09:30:20;18.58;;;8.10;;
22248;SDS011;67538;52.180;5.646;2023-02-19T09:32:47;8.93;;;5.68;;
22248;SDS011;67538;52.180;5.646;2023-02-19T09:35:15;9.43;;;6.00;;
22248;SDS011;67538;52.180;5.646;2023-02-19T09:37:42;9.60;;;5.47;;
22248;SDS011;67538;52.180;5.646;2023-02-19T09:40:09;7.38;;;4.78;;
22248;SDS011;67538;52.180;5.646;2023-02-19T09:42:38;6.45;;;4.93;;
22248;SDS011;67538;52.180;5.646;2023-02-19T09:45:09;8.83;;;5.47;;
22248;SDS011;67538;52.180;5.646;2023-02-19T09:47:42;9.40;;;5.75;;
22248;SDS011;67538;52.180;5.646;2023-02-19T09:50:11;8.45;;;5.90;;
22248;SDS011;67538;52.180;5.646;2023-02-19T09:52:43;8.68;;;5.75;;
22248;SDS011;67538;52.180;5.646;2023-02-19T09:55:13;8.27;;;5.77;;
22248;SDS011;67538;52.180;5.646;2023-02-19T09:57:44;12.35;;;6.57;;
22248;SDS011;67538;52.180;5.646;2023-02-19T10:00:18;9.57;;;6.00;;
22248;SDS011;67538;52.180;5.646;2023-02-19T10:02:49;8.52;;;5.88;;
22248;SDS011;67538;52.180;5.646;2023-02-19T10:05:18;9.95;;;5.93;;
22248;SDS011;67538;52.180;5.646;2023-02-19T10:07:48;8.63;;;5.85;;
22248;SDS011;67538;52.180;5.646;2023-02-19T10:10:23;9.63;;;5.97;;
22248;SDS011;67538;52.180;5.646;2023-02-19T10:12:58;8.17;;;6.13;;
22248;SDS011;67538;52.180;5.646;2023-02-19T10:15:37;8.05;;;5.50;;
22248;SDS011;67538;52.180;5.646;2023-02-19T10:18:09;9.02;;;5.72;;
22248;SDS011;67538;52.180;5.646;2023-02-19T10:20:36;8.55;;;5.28;;
22248;SDS011;67538;52.180;5.646;2023-02-19T10:23:05;7.13;;;5.10;;
22248;SDS011;67538;52.180;5.646;2023-02-19T10:25:39;6.77;;;5.00;;
22248;SDS011;67538;52.180;5.646;2023-02-19T10:28:11;7.40;;;4.80;;
22248;SDS011;67538;52.180;5.646;2023-02-19T10:30:41;8.93;;;4.72;;
22248;SDS011;67538;52.180;5.646;2023-02-19T10:33:09;6.93;;;4.63;;
22248;SDS011;67538;52.180;5.646;2023-02-19T10:35:37;8.33;;;5.00;;
22248;SDS011;67538;52.180;5.646;2023-02-19T10:38:18;7.43;;;4.73;;
22248;SDS011;67538;52.180;5.646;2023-02-19T10:40:47;6.63;;;5.00;;
22248;SDS011;67538;52.180;5.646;2023-02-19T10:43:24;7.28;;;4.88;;
22248;SDS011;67538;52.180;5.646;2023-02-19T10:45:58;4.70;;;3.70;;
22248;SDS011;67538;52.180;5.646;2023-02-19T10:48:30;6.70;;;3.60;;
22248;SDS011;67538;52.180;5.646;2023-02-19T10:51:01;4.28;;;3.40;;
22248;SDS011;67538;52.180;5.646;2023-02-19T10:53:37;4.43;;;3.58;;
22248;SDS011;67538;52.180;5.646;2023-02-19T10:56:10;5.35;;;3.70;;
22248;SDS011;67538;52.180;5.646;2023-02-19T10:58:40;5.47;;;3.50;;
22248;SDS011;67538;52.180;5.646;2023-02-19T11:01:12;5.93;;;3.70;;
22248;SDS011;67538;52.180;5.646;2023-02-19T11:03:41;4.30;;;3.53;;
22248;SDS011;67538;52.180;5.646;2023-02-19T11:06:09;4.97;;;3.85;;
22248;SDS011;67538;52.180;5.646;2023-02-19T11:08:44;5.73;;;3.77;;
22248;SDS011;67538;52.180;5.646;2023-02-19T11:11:30;4.53;;;3.38;;
22248;SDS011;67538;52.180;5.646;2023-02-19T11:14:02;5.03;;;3.70;;
22248;SDS011;67538;52.180;5.646;2023-02-19T11:16:40;6.95;;;3.70;;
22248;SDS011;67538;52.180;5.646;2023-02-19T11:22:02;4.70;;;3.50;;
22248;SDS011;67538;52.180;5.646;2023-02-19T11:24:54;4.28;;;3.35;;
22248;SDS011;67538;52.180;5.646;2023-02-19T11:27:22;3.47;;;2.80;;
22248;SDS011;67538;52.180;5.646;2023-02-19T11:29:51;2.60;;;2.20;;
22248;SDS011;67538;52.180;5.646;2023-02-19T11:32:22;2.47;;;2.28;;
22248;SDS011;67538;52.180;5.646;2023-02-19T11:37:53;2.90;;;1.92;;
22248;SDS011;67538;52.180;5.646;2023-02-19T11:40:21;2.40;;;2.20;;
22248;SDS011;67538;52.180;5.646;2023-02-19T11:43:00;2.53;;;2.33;;
22248;SDS011;67538;52.180;5.646;2023-02-19T11:45:45;3.85;;;3.20;;
22248;SDS011;67538;52.180;5.646;2023-02-19T11:51:20;3.95;;;3.55;;
22248;SDS011;67538;52.180;5.646;2023-02-19T11:54:02;3.70;;;3.40;;
22248;SDS011;67538;52.180;5.646;2023-02-19T11:56:36;4.47;;;4.07;;
22248;SDS011;67538;52.180;5.646;2023-02-19T11:59:08;5.00;;;4.20;;
22248;SDS011;67538;52.180;5.646;2023-02-19T12:01:47;4.40;;;4.00;;
22248;SDS011;67538;52.180;5.646;2023-02-19T12:07:24;5.10;;;4.60;;
22248;SDS011;67538;52.180;5.646;2023-02-19T12:10:16;6.20;;;4.40;;
22248;SDS011;67538;52.180;5.646;2023-02-19T12:12:51;4.57;;;4.17;;
22248;SDS011;67538;52.180;5.646;2023-02-19T12:15:44;4.70;;;4.20;;
22248;SDS011;67538;52.180;5.646;2023-02-19T12:21:36;5.35;;;4.50;;
22248;SDS011;67538;52.180;5.646;2023-02-19T12:24:22;4.82;;;4.15;;
22248;SDS011;67538;52.180;5.646;2023-02-19T12:27:19;4.45;;;4.05;;
22248;SDS011;67538;52.180;5.646;2023-02-19T12:30:02;4.80;;;4.25;;
22248;SDS011;67538;52.180;5.646;2023-02-19T12:32:57;4.32;;;3.60;;
22248;SDS011;67538;52.180;5.646;2023-02-19T12:35:48;4.15;;;3.70;;
22248;SDS011;67538;52.180;5.646;2023-02-19T12:38:25;4.53;;;3.92;;
22248;SDS011;67538;52.180;5.646;2023-02-19T12:41:07;4.03;;;3.60;;
22248;SDS011;67538;52.180;5.646;2023-02-19T12:43:45;4.13;;;3.72;;
22248;SDS011;67538;52.180;5.646;2023-02-19T12:46:19;4.57;;;3.60;;
22248;SDS011;67538;52.180;5.646;2023-02-19T12:48:53;6.15;;;3.30;;
22248;SDS011;67538;52.180;5.646;2023-02-19T12:51:27;3.45;;;3.15;;
22248;SDS011;67538;52.180;5.646;2023-02-19T12:53:59;3.50;;;2.90;;
22248;SDS011;67538;52.180;5.646;2023-02-19T12:56:31;3.58;;;2.88;;
22248;SDS011;67538;52.180;5.646;2023-02-19T12:59:02;3.35;;;2.75;;
22248;SDS011;67538;52.180;5.646;2023-02-19T13:01:38;2.72;;;2.53;;
22248;SDS011;67538;52.180;5.646;2023-02-19T13:04:16;3.55;;;2.80;;
22248;SDS011;67538;52.180;5.646;2023-02-19T13:07:00;3.65;;;2.70;;
22248;SDS011;67538;52.180;5.646;2023-02-19T13:09:32;4.32;;;2.70;;
22248;SDS011;67538;52.180;5.646;2023-02-19T13:12:04;3.80;;;2.67;;
22248;SDS011;67538;52.180;5.646;2023-02-19T13:14:38;4.53;;;3.10;;
22248;SDS011;67538;52.180;5.646;2023-02-19T13:17:14;3.10;;;2.65;;
22248;SDS011;67538;52.180;5.646;2023-02-19T13:19:48;3.55;;;3.03;;
22248;SDS011;67538;52.180;5.646;2023-02-19T13:22:20;4.10;;;2.60;;
22248;SDS011;67538;52.180;5.646;2023-02-19T13:25:09;3.00;;;2.70;;
22248;SDS011;67538;52.180;5.646;2023-02-19T13:30:41;3.00;;;2.80;;
22248;SDS011;67538;52.180;5.646;2023-02-19T13:33:26;4.50;;;2.90;;
22248;SDS011;67538;52.180;5.646;2023-02-19T13:36:03;4.47;;;3.40;;
22248;SDS011;67538;52.180;5.646;2023-02-19T13:38:37;4.20;;;3.80;;
22248;SDS011;67538;52.180;5.646;2023-02-19T13:41:15;4.18;;;3.10;;
22248;SDS011;67538;52.180;5.646;2023-02-19T13:43:58;4.05;;;3.28;;
22248;SDS011;67538;52.180;5.646;2023-02-19T13:46:35;4.60;;;3.35;;
22248;SDS011;67538;52.180;5.646;2023-02-19T13:52:02;3.65;;;3.33;;
22248;SDS011;67538;52.180;5.646;2023-02-19T13:54:50;3.50;;;3.20;;
22248;SDS011;67538;52.180;5.646;2023-02-19T13:57:18;4.38;;;3.33;;
22248;SDS011;67538;52.180;5.646;2023-02-19T13:59:51;4.22;;;3.30;;
22248;SDS011;67538;52.180;5.646;2023-02-19T14:02:24;4.78;;;2.90;;
22248;SDS011;67538;52.180;5.646;2023-02-19T14:04:55;4.28;;;3.13;;
22248;SDS011;67538;52.180;5.646;2023-02-19T14:19:44;3.78;;;3.08;;
22248;SDS011;67538;52.180;5.646;2023-02-19T14:25:32;3.70;;;2.80;;
22248;SDS011;67538;52.180;5.646;2023-02-19T14:28:04;3.13;;;2.60;;
22248;SDS011;67538;52.180;5.646;2023-02-19T14:30:44;3.80;;;2.70;;
22248;SDS011;67538;52.180;5.646;2023-02-19T14:33:15;3.30;;;2.60;;
22248;SDS011;67538;52.180;5.646;2023-02-19T14:35:45;3.63;;;2.75;;
22248;SDS011;67538;52.180;5.646;2023-02-19T14:38:15;2.80;;;2.50;;
22248;SDS011;67538;52.180;5.646;2023-02-19T14:40:46;3.22;;;2.50;;
22248;SDS011;67538;52.180;5.646;2023-02-19T14:43:15;3.25;;;2.95;;
22248;SDS011;67538;52.180;5.646;2023-02-19T14:45:46;3.00;;;2.70;;
22248;SDS011;67538;52.180;5.646;2023-02-19T14:48:16;3.00;;;2.70;;
22248;SDS011;67538;52.180;5.646;2023-02-19T14:50:48;4.03;;;2.85;;
22248;SDS011;67538;52.180;5.646;2023-02-19T14:53:17;3.92;;;3.10;;
22248;SDS011;67538;52.180;5.646;2023-02-19T14:55:48;3.72;;;2.90;;
22248;SDS011;67538;52.180;5.646;2023-02-19T14:58:17;3.72;;;2.90;;
22248;SDS011;67538;52.180;5.646;2023-02-19T15:00:50;3.77;;;2.77;;
22248;SDS011;67538;52.180;5.646;2023-02-19T15:03:24;4.65;;;2.58;;
22248;SDS011;67538;52.180;5.646;2023-02-19T15:05:58;4.15;;;2.63;;
22248;SDS011;67538;52.180;5.646;2023-02-19T15:08:31;3.20;;;2.60;;
22248;SDS011;67538;52.180;5.646;2023-02-19T15:11:01;2.47;;;2.17;;
22248;SDS011;67538;52.180;5.646;2023-02-19T15:13:32;2.75;;;2.35;;
22248;SDS011;67538;52.180;5.646;2023-02-19T15:16:02;2.50;;;2.30;;
22248;SDS011;67538;52.180;5.646;2023-02-19T15:18:29;2.30;;;2.10;;
22248;SDS011;67538;52.180;5.646;2023-02-19T15:21:01;3.22;;;2.35;;
22248;SDS011;67538;52.180;5.646;2023-02-19T15:23:30;2.33;;;2.13;;
22248;SDS011;67538;52.180;5.646;2023-02-19T15:25:59;2.50;;;2.30;;
22248;SDS011;67538;52.180;5.646;2023-02-19T15:28:28;1.90;;;1.80;;
22248;SDS011;67538;52.180;5.646;2023-02-19T15:31:09;1.73;;;1.63;;
22248;SDS011;67538;52.180;5.646;2023-02-19T15:33:47;2.08;;;1.70;;
22248;SDS011;67538;52.180;5.646;2023-02-19T15:36:16;2.00;;;1.60;;